N722XX SADF-SADF
Flight info
| Callsign | N722XX |
|---|---|
| Flight time | 0h 29m |
| Altitude | 998 |
| Route | SADM SADM |
| Aircraft | SR22/L-SDGRY/S |
Departure
| Time | 2026-05-07 19:47 |
|---|---|
| Airport | San Fernando Airport (SADF) |
Arrival
| Time | 2026-05-07 20:16 |
|---|---|
| Airport | San Fernando Airport (SADF) |
| Time | Latitude | Longitude | Altitude | Speed | Heading |
|---|---|---|---|---|---|
| 2026-05-07 19:32 | -34.45269 | -58.57933 | 19 ft | 0 kts | 258° |
| 2026-05-07 19:42 | -34.45270 | -58.57935 | 18 ft | 1 kts | 260° |
| 2026-05-07 19:42 | -34.45280 | -58.57970 | 24 ft | 9 kts | 232° |
| 2026-05-07 19:42 | -34.45277 | -58.58012 | 22 ft | 8 kts | 332° |
| 2026-05-07 19:42 | -34.45211 | -58.58055 | 22 ft | 13 kts | 330° |
| 2026-05-07 19:43 | -34.45125 | -58.58117 | 22 ft | 16 kts | 328° |
| 2026-05-07 19:43 | -34.45034 | -58.58184 | 22 ft | 13 kts | 329° |
| 2026-05-07 19:43 | -34.44950 | -58.58244 | 22 ft | 15 kts | 329° |
| 2026-05-07 19:43 | -34.44900 | -58.58280 | 22 ft | 0 kts | 319° |
| 2026-05-07 19:45 | -34.44876 | -58.58308 | 22 ft | 10 kts | 319° |
| 2026-05-07 19:45 | -34.44844 | -58.58366 | 22 ft | 10 kts | 248° |
| 2026-05-07 19:46 | -34.44984 | -58.58536 | 22 ft | 61 kts | 224° |
| 2026-05-07 19:46 | -34.45403 | -58.59008 | 100 ft | 94 kts | 229° |
| 2026-05-07 19:46 | -34.45887 | -58.59543 | 374 ft | 97 kts | 221° |
| 2026-05-07 19:46 | -34.46417 | -58.60059 | 593 ft | 94 kts | 227° |
| 2026-05-07 19:47 | -34.47088 | -58.60102 | 765 ft | 118 kts | 157° |
| 2026-05-07 19:47 | -34.47566 | -58.59237 | 916 ft | 125 kts | 127° |
| 2026-05-07 19:47 | -34.48039 | -58.58336 | 1022 ft | 126 kts | 132° |
| 2026-05-07 19:47 | -34.48164 | -58.57283 | 1080 ft | 141 kts | 67° |
| 2026-05-07 19:48 | -34.47532 | -58.56338 | 1017 ft | 144 kts | 46° |
| 2026-05-07 19:48 | -34.46875 | -58.55415 | 981 ft | 145 kts | 45° |
| 2026-05-07 19:48 | -34.46075 | -58.54812 | 912 ft | 127 kts | 349° |
| 2026-05-07 19:48 | -34.45357 | -58.55183 | 872 ft | 109 kts | 319° |
| 2026-05-07 19:49 | -34.44699 | -58.55689 | 758 ft | 114 kts | 317° |
| 2026-05-07 19:49 | -34.44089 | -58.56286 | 611 ft | 107 kts | 292° |
| 2026-05-07 19:49 | -34.44193 | -58.57041 | 445 ft | 91 kts | 243° |
| 2026-05-07 19:49 | -34.44447 | -58.57759 | 314 ft | 97 kts | 246° |
| 2026-05-07 19:50 | -34.44862 | -58.58392 | 148 ft | 94 kts | 234° |
| 2026-05-07 19:50 | -34.45315 | -58.58916 | 22 ft | 82 kts | 231° |
| 2026-05-07 19:50 | -34.45755 | -58.59417 | 125 ft | 93 kts | 222° |
| 2026-05-07 19:50 | -34.46215 | -58.59943 | 427 ft | 92 kts | 228° |
| 2026-05-07 19:51 | -34.46729 | -58.60417 | 555 ft | 100 kts | 204° |
| 2026-05-07 19:51 | -34.47373 | -58.60061 | 728 ft | 117 kts | 142° |
| 2026-05-07 19:51 | -34.47847 | -58.59234 | 855 ft | 120 kts | 130° |
| 2026-05-07 19:51 | -34.48252 | -58.58328 | 1015 ft | 123 kts | 121° |
| 2026-05-07 19:52 | -34.48049 | -58.57299 | 969 ft | 143 kts | 36° |
| 2026-05-07 19:52 | -34.47281 | -58.56579 | 1009 ft | 140 kts | 30° |
| 2026-05-07 19:52 | -34.46493 | -58.55894 | 1040 ft | 139 kts | 34° |
| 2026-05-07 19:52 | -34.45720 | -58.55210 | 1016 ft | 133 kts | 15° |
| 2026-05-07 19:53 | -34.44942 | -58.55352 | 903 ft | 114 kts | 312° |
| 2026-05-07 19:53 | -34.44295 | -58.55875 | 868 ft | 106 kts | 311° |
| 2026-05-07 19:53 | -34.43793 | -58.56476 | 761 ft | 94 kts | 287° |
| 2026-05-07 19:53 | -34.43859 | -58.57166 | 595 ft | 92 kts | 234° |
| 2026-05-07 19:54 | -34.44305 | -58.57700 | 381 ft | 93 kts | 227° |
| 2026-05-07 19:54 | -34.44762 | -58.58260 | 137 ft | 94 kts | 232° |
| 2026-05-07 19:54 | -34.45212 | -58.58797 | 29 ft | 83 kts | 231° |
| 2026-05-07 19:54 | -34.45611 | -58.59262 | 60 ft | 89 kts | 225° |
| 2026-05-07 19:55 | -34.46064 | -58.59761 | 365 ft | 87 kts | 229° |
| 2026-05-07 19:55 | -34.46591 | -58.60196 | 556 ft | 98 kts | 213° |
| 2026-05-07 19:55 | -34.47227 | -58.59848 | 847 ft | 128 kts | 126° |
| 2026-05-07 19:55 | -34.47694 | -58.58875 | 1017 ft | 134 kts | 132° |
| 2026-05-07 19:56 | -34.47928 | -58.57795 | 1117 ft | 142 kts | 79° |
| 2026-05-07 19:56 | -34.47311 | -58.56809 | 977 ft | 150 kts | 44° |
| 2026-05-07 19:56 | -34.46586 | -58.55959 | 960 ft | 142 kts | 36° |
| 2026-05-07 19:56 | -34.45807 | -58.55244 | 864 ft | 134 kts | 14° |
| 2026-05-07 19:57 | -34.45005 | -58.55269 | 834 ft | 112 kts | 316° |
| 2026-05-07 19:57 | -34.44372 | -58.55757 | 879 ft | 103 kts | 309° |
| 2026-05-07 19:57 | -34.43806 | -58.56310 | 857 ft | 99 kts | 304° |
| 2026-05-07 19:57 | -34.43537 | -58.56957 | 775 ft | 88 kts | 251° |
| 2026-05-07 19:58 | -34.44071 | -58.57420 | 496 ft | 100 kts | 225° |
| 2026-05-07 19:58 | -34.44572 | -58.57989 | 275 ft | 95 kts | 234° |
| 2026-05-07 19:58 | -34.45016 | -58.58559 | 33 ft | 91 kts | 232° |
| 2026-05-07 19:58 | -34.45415 | -58.59052 | 22 ft | 73 kts | 228° |
| 2026-05-07 19:59 | -34.45840 | -58.59532 | 126 ft | 94 kts | 229° |
| 2026-05-07 19:59 | -34.46348 | -58.60058 | 354 ft | 102 kts | 224° |
| 2026-05-07 19:59 | -34.46892 | -58.60649 | 501 ft | 103 kts | 214° |
| 2026-05-07 19:59 | -34.47530 | -58.60341 | 631 ft | 111 kts | 129° |
| 2026-05-07 20:00 | -34.47969 | -58.59560 | 618 ft | 115 kts | 132° |
| 2026-05-07 20:00 | -34.48422 | -58.58669 | 638 ft | 126 kts | 123° |
| 2026-05-07 20:00 | -34.48431 | -58.57648 | 958 ft | 135 kts | 51° |
| 2026-05-07 20:00 | -34.47726 | -58.56847 | 1109 ft | 143 kts | 33° |
| 2026-05-07 20:01 | -34.46916 | -58.56179 | 1334 ft | 141 kts | 25° |
| 2026-05-07 20:01 | -34.46043 | -58.55567 | 1129 ft | 148 kts | 20° |
| 2026-05-07 20:01 | -34.45234 | -58.55608 | 1155 ft | 101 kts | 311° |
| 2026-05-07 20:01 | -34.44705 | -58.56172 | 898 ft | 98 kts | 299° |
| 2026-05-07 20:02 | -34.44298 | -58.56759 | 792 ft | 87 kts | 294° |
| 2026-05-07 20:02 | -34.44140 | -58.57414 | 572 ft | 79 kts | 252° |
| 2026-05-07 20:02 | -34.44527 | -58.57974 | 258 ft | 95 kts | 227° |
| 2026-05-07 20:02 | -34.44994 | -58.58536 | 38 ft | 93 kts | 232° |
| 2026-05-07 20:03 | -34.45398 | -58.59037 | 22 ft | 72 kts | 230° |
| 2026-05-07 20:03 | -34.45826 | -58.59519 | 106 ft | 94 kts | 231° |
| 2026-05-07 20:03 | -34.46296 | -58.60024 | 407 ft | 88 kts | 229° |
| 2026-05-07 20:03 | -34.46761 | -58.60568 | 490 ft | 92 kts | 230° |
| 2026-05-07 20:04 | -34.47412 | -58.60442 | 663 ft | 123 kts | 144° |
| 2026-05-07 20:04 | -34.47940 | -58.59543 | 791 ft | 130 kts | 134° |
| 2026-05-07 20:04 | -34.48410 | -58.58592 | 878 ft | 136 kts | 107° |
| 2026-05-07 20:04 | -34.48060 | -58.57547 | 892 ft | 143 kts | 43° |
| 2026-05-07 20:05 | -34.47369 | -58.56704 | 873 ft | 141 kts | 42° |
| 2026-05-07 20:05 | -34.46896 | -58.56153 | 854 ft | 142 kts | 38° |
| 2026-05-07 20:05 | -34.46110 | -58.55619 | 891 ft | 119 kts | 349° |
| 2026-05-07 20:05 | -34.45406 | -58.55980 | 748 ft | 110 kts | 319° |
| 2026-05-07 20:06 | -34.44778 | -58.56465 | 635 ft | 104 kts | 310° |
| 2026-05-07 20:06 | -34.44259 | -58.56999 | 521 ft | 97 kts | 302° |
| 2026-05-07 20:06 | -34.44198 | -58.57687 | 465 ft | 84 kts | 232° |
| 2026-05-07 20:06 | -34.44672 | -58.58172 | 171 ft | 87 kts | 243° |
| 2026-05-07 20:07 | -34.45095 | -58.58654 | 26 ft | 83 kts | 234° |
| 2026-05-07 20:07 | -34.45464 | -58.59117 | 84 ft | 83 kts | 216° |
| 2026-05-07 20:07 | -34.45908 | -58.59601 | 195 ft | 82 kts | 233° |
| 2026-05-07 20:07 | -34.46297 | -58.60102 | 275 ft | 80 kts | 233° |
| 2026-05-07 20:08 | -34.46634 | -58.60646 | 358 ft | 75 kts | 251° |
| 2026-05-07 20:08 | -34.46870 | -58.61248 | 388 ft | 82 kts | 252° |
| 2026-05-07 20:08 | -34.46700 | -58.61834 | 513 ft | 93 kts | 321° |
| 2026-05-07 20:08 | -34.46032 | -58.61668 | 482 ft | 121 kts | 40° |
| 2026-05-07 20:09 | -34.45363 | -58.61041 | 507 ft | 118 kts | 24° |
| 2026-05-07 20:09 | -34.44617 | -58.60925 | 650 ft | 112 kts | 340° |
| 2026-05-07 20:09 | -34.44004 | -58.61384 | 789 ft | 96 kts | 294° |
| 2026-05-07 20:10 | -34.44509 | -58.62713 | 860 ft | 95 kts | 235° |
| 2026-05-07 20:10 | -34.44927 | -58.63331 | 888 ft | 90 kts | 238° |
| 2026-05-07 20:10 | -34.44783 | -58.64065 | 653 ft | 114 kts | 309° |
| 2026-05-07 20:10 | -34.44229 | -58.64647 | 750 ft | 101 kts | 302° |
| 2026-05-07 20:11 | -34.43947 | -58.65322 | 800 ft | 81 kts | 255° |
| 2026-05-07 20:11 | -34.44399 | -58.65610 | 818 ft | 103 kts | 173° |
| 2026-05-07 20:11 | -34.44976 | -58.64914 | 782 ft | 124 kts | 136° |
| 2026-05-07 20:11 | -34.45460 | -58.64065 | 761 ft | 117 kts | 133° |
| 2026-05-07 20:12 | -34.46051 | -58.63558 | 605 ft | 103 kts | 191° |
| 2026-05-07 20:12 | -34.46679 | -58.63883 | 537 ft | 98 kts | 209° |
| 2026-05-07 20:12 | -34.47350 | -58.63929 | 614 ft | 103 kts | 163° |
| 2026-05-07 20:12 | -34.47819 | -58.63155 | 604 ft | 123 kts | 120° |
| 2026-05-07 20:13 | -34.48085 | -58.62227 | 656 ft | 119 kts | 96° |
| 2026-05-07 20:13 | -34.48014 | -58.61194 | 617 ft | 126 kts | 82° |
| 2026-05-07 20:13 | -34.47697 | -58.60201 | 632 ft | 128 kts | 54° |
| 2026-05-07 20:13 | -34.47149 | -58.59356 | 625 ft | 130 kts | 43° |
| 2026-05-07 20:14 | -34.46539 | -58.58561 | 664 ft | 127 kts | 38° |
| 2026-05-07 20:14 | -34.45943 | -58.57854 | 694 ft | 118 kts | 38° |
| 2026-05-07 20:14 | -34.45330 | -58.57171 | 653 ft | 118 kts | 36° |
| 2026-05-07 20:14 | -34.44701 | -58.57050 | 709 ft | 88 kts | 312° |
| 2026-05-07 20:15 | -34.44292 | -58.57522 | 597 ft | 63 kts | 271° |
| 2026-05-07 20:15 | -34.44550 | -58.57989 | 284 ft | 77 kts | 237° |
| 2026-05-07 20:15 | -34.44938 | -58.58461 | 90 ft | 76 kts | 239° |
| 2026-05-07 20:15 | -34.45262 | -58.58868 | 22 ft | 55 kts | 232° |
| 2026-05-07 20:16 | -34.45488 | -58.59140 | 22 ft | 36 kts | 219° |
| 2026-05-07 20:16 | -34.45604 | -58.59270 | 22 ft | 14 kts | 232° |
| 2026-05-07 20:16 | -34.45690 | -58.59301 | 22 ft | 16 kts | 152° |
| 2026-05-07 20:16 | -34.45768 | -58.59246 | 22 ft | 13 kts | 150° |
| 2026-05-07 20:17 | -34.45843 | -58.59185 | 22 ft | 12 kts | 114° |
| 2026-05-07 20:17 | -34.45800 | -58.59071 | 22 ft | 20 kts | 63° |
| 2026-05-07 20:17 | -34.45766 | -58.58975 | 22 ft | 1 kts | 142° |
| 2026-05-07 20:17 | -34.45790 | -58.58966 | 22 ft | 9 kts | 155° |
| 2026-05-07 20:18 | -34.45836 | -58.59024 | 22 ft | 9 kts | 247° |
| 2026-05-07 20:18 | -34.45844 | -58.59046 | 22 ft | 0 kts | 243° |